sensor_id;sensor_type;location;lat;lon;timestamp;pressure;altitude;pressure_sealevel;temperature;humidity
81812;BME280;71243;51.848;5.768;2023-11-19T00:00:40;100939.97;;;13.05;100.00
81812;BME280;71243;51.848;5.768;2023-11-19T00:03:05;100925.69;;;13.06;100.00
81812;BME280;71243;51.848;5.768;2023-11-19T00:05:30;100930.16;;;13.05;100.00
81812;BME280;71243;51.848;5.768;2023-11-19T00:07:55;100936.28;;;13.06;100.00
81812;BME280;71243;51.848;5.768;2023-11-19T00:10:21;100927.19;;;13.08;100.00
81812;BME280;71243;51.848;5.768;2023-11-19T00:12:48;100922.69;;;13.09;100.00
81812;BME280;71243;51.848;5.768;2023-11-19T00:15:18;100921.72;;;13.10;100.00
81812;BME280;71243;51.848;5.768;2023-11-19T00:17:45;100910.09;;;13.11;100.00
81812;BME280;71243;51.848;5.768;2023-11-19T00:20:17;100898.69;;;13.10;100.00
81812;BME280;71243;51.848;5.768;2023-11-19T00:22:43;100884.25;;;13.13;100.00
81812;BME280;71243;51.848;5.768;2023-11-19T00:25:09;100881.25;;;13.16;100.00
81812;BME280;71243;51.848;5.768;2023-11-19T00:27:37;100891.88;;;13.16;100.00
81812;BME280;71243;51.848;5.768;2023-11-19T00:30:04;100897.19;;;13.16;100.00
81812;BME280;71243;51.848;5.768;2023-11-19T00:32:30;100896.72;;;13.20;100.00
81812;BME280;71243;51.848;5.768;2023-11-19T00:34:55;100896.72;;;13.20;100.00
81812;BME280;71243;51.848;5.768;2023-11-19T00:37:20;100892.06;;;13.23;99.94
81812;BME280;71243;51.848;5.768;2023-11-19T00:39:45;100880.63;;;13.22;100.00
81812;BME280;71243;51.848;5.768;2023-11-19T00:42:10;100891.72;;;13.26;99.79
81812;BME280;71243;51.848;5.768;2023-11-19T00:44:36;100896.88;;;13.27;99.94
81812;BME280;71243;51.848;5.768;2023-11-19T00:47:01;100893.38;;;13.27;99.97
81812;BME280;71243;51.848;5.768;2023-11-19T00:49:26;100894.88;;;13.29;99.21
81812;BME280;71243;51.848;5.768;2023-11-19T00:51:52;100904.19;;;13.33;99.28
81812;BME280;71243;51.848;5.768;2023-11-19T00:54:17;100903.84;;;13.36;98.91
81812;BME280;71243;51.848;5.768;2023-11-19T00:56:42;100882.28;;;13.31;98.99
81812;BME280;71243;51.848;5.768;2023-11-19T00:59:07;100891.22;;;13.30;98.84
81812;BME280;71243;51.848;5.768;2023-11-19T01:01:33;100886.59;;;13.32;99.11
81812;BME280;71243;51.848;5.768;2023-11-19T01:03:59;100886.59;;;13.32;99.23
81812;BME280;71243;51.848;5.768;2023-11-19T01:06:28;100883.25;;;13.30;99.05
81812;BME280;71243;51.848;5.768;2023-11-19T01:08:53;100875.81;;;13.26;98.95
81812;BME280;71243;51.848;5.768;2023-11-19T01:11:20;100862.53;;;13.26;98.55
81812;BME280;71243;51.848;5.768;2023-11-19T01:13:45;100870.34;;;13.27;98.98
81812;BME280;71243;51.848;5.768;2023-11-19T01:16:10;100861.06;;;13.31;98.61
81812;BME280;71243;51.848;5.768;2023-11-19T01:18:36;100857.75;;;13.29;98.19
81812;BME280;71243;51.848;5.768;2023-11-19T01:21:01;100873.66;;;13.29;98.34
81812;BME280;71243;51.848;5.768;2023-11-19T01:23:26;100876.16;;;13.31;97.85
81812;BME280;71243;51.848;5.768;2023-11-19T01:25:51;100868.00;;;13.32;97.70
81812;BME280;71243;51.848;5.768;2023-11-19T01:28:16;100871.00;;;13.37;97.61
81812;BME280;71243;51.848;5.768;2023-11-19T01:30:42;100864.88;;;13.37;97.26
81812;BME280;71243;51.848;5.768;2023-11-19T01:33:07;100840.81;;;13.38;97.26
81812;BME280;71243;51.848;5.768;2023-11-19T01:35:32;100843.81;;;13.35;96.95
81812;BME280;71243;51.848;5.768;2023-11-19T01:37:57;100847.28;;;13.36;97.24
81812;BME280;71243;51.848;5.768;2023-11-19T01:40:22;100850.28;;;13.33;96.99
81812;BME280;71243;51.848;5.768;2023-11-19T01:42:48;100855.75;;;13.31;97.29
81812;BME280;71243;51.848;5.768;2023-11-19T01:45:27;100860.56;;;13.36;96.59
81812;BME280;71243;51.848;5.768;2023-11-19T01:47:52;100859.25;;;13.32;96.55
81812;BME280;71243;51.848;5.768;2023-11-19T01:50:18;100856.59;;;13.32;96.65
81812;BME280;71243;51.848;5.768;2023-11-19T01:52:43;100864.88;;;13.37;96.69
81812;BME280;71243;51.848;5.768;2023-11-19T01:55:09;100866.38;;;13.31;96.36
81812;BME280;71243;51.848;5.768;2023-11-19T01:57:36;100863.53;;;13.33;96.30
81812;BME280;71243;51.848;5.768;2023-11-19T02:00:01;100862.03;;;13.30;96.40
81812;BME280;71243;51.848;5.768;2023-11-19T02:02:27;100851.28;;;13.32;96.00
81812;BME280;71243;51.848;5.768;2023-11-19T02:04:52;100853.09;;;13.31;96.11
81812;BME280;71243;51.848;5.768;2023-11-19T02:07:18;100846.28;;;13.29;96.00
81812;BME280;71243;51.848;5.768;2023-11-19T02:09:44;100850.78;;;13.28;96.05
81812;BME280;71243;51.848;5.768;2023-11-19T02:12:09;100849.78;;;13.29;96.23
81812;BME280;71243;51.848;5.768;2023-11-19T02:14:35;100841.66;;;13.31;95.99
81812;BME280;71243;51.848;5.768;2023-11-19T02:17:00;100831.19;;;13.29;95.72
81812;BME280;71243;51.848;5.768;2023-11-19T02:19:25;100834.38;;;13.25;95.48
81812;BME280;71243;51.848;5.768;2023-11-19T02:21:50;100828.06;;;13.26;95.43
81812;BME280;71243;51.848;5.768;2023-11-19T02:24:16;100826.72;;;13.21;95.19
81812;BME280;71243;51.848;5.768;2023-11-19T02:26:59;100832.53;;;13.17;94.83
81812;BME280;71243;51.848;5.768;2023-11-19T02:29:27;100846.47;;;13.19;94.74
81812;BME280;71243;51.848;5.768;2023-11-19T02:31:52;100835.84;;;13.19;94.65
81812;BME280;71243;51.848;5.768;2023-11-19T02:34:17;100846.47;;;13.19;94.03
81812;BME280;71243;51.848;5.768;2023-11-19T02:36:43;100838.50;;;13.19;94.14
81812;BME280;71243;51.848;5.768;2023-11-19T02:39:08;100836.50;;;13.13;94.09
81812;BME280;71243;51.848;5.768;2023-11-19T02:41:33;100853.44;;;13.12;94.08
81812;BME280;71243;51.848;5.768;2023-11-19T02:43:59;100844.97;;;13.08;93.78
81812;BME280;71243;51.848;5.768;2023-11-19T02:46:24;100847.78;;;13.07;93.84
81812;BME280;71243;51.848;5.768;2023-11-19T02:48:49;100847.28;;;13.03;93.78
81812;BME280;71243;51.848;5.768;2023-11-19T02:51:14;100839.47;;;13.02;93.58
81812;BME280;71243;51.848;5.768;2023-11-19T02:53:39;100842.25;;;13.00;93.67
81812;BME280;71243;51.848;5.768;2023-11-19T02:56:05;100847.06;;;12.97;93.65
81812;BME280;71243;51.848;5.768;2023-11-19T02:58:31;100848.22;;;12.94;92.84
81812;BME280;71243;51.848;5.768;2023-11-19T03:00:56;100848.72;;;12.98;92.54
81812;BME280;71243;51.848;5.768;2023-11-19T03:03:21;100848.22;;;12.94;92.50
81812;BME280;71243;51.848;5.768;2023-11-19T03:05:47;100847.41;;;12.94;92.56
81812;BME280;71243;51.848;5.768;2023-11-19T03:08:12;100849.88;;;12.95;92.38
81812;BME280;71243;51.848;5.768;2023-11-19T03:10:38;100842.59;;;12.89;92.57
81812;BME280;71243;51.848;5.768;2023-11-19T03:13:03;100861.47;;;12.86;92.36
81812;BME280;71243;51.848;5.768;2023-11-19T03:15:28;100852.03;;;12.84;92.50
81812;BME280;71243;51.848;5.768;2023-11-19T03:17:53;100840.75;;;12.82;92.21
81812;BME280;71243;51.848;5.768;2023-11-19T03:20:18;100838.41;;;12.79;91.97
81812;BME280;71243;51.848;5.768;2023-11-19T03:22:44;100844.69;;;12.78;92.04
81812;BME280;71243;51.848;5.768;2023-11-19T03:25:09;100846.84;;;12.74;91.91
81812;BME280;71243;51.848;5.768;2023-11-19T03:27:38;100856.94;;;12.71;91.89
81812;BME280;71243;51.848;5.768;2023-11-19T03:30:07;100857.13;;;12.69;91.93
81812;BME280;71243;51.848;5.768;2023-11-19T03:32:33;100846.47;;;12.61;92.35
81812;BME280;71243;51.848;5.768;2023-11-19T03:34:58;100847.13;;;12.55;91.98
81812;BME280;71243;51.848;5.768;2023-11-19T03:37:24;100843.81;;;12.53;91.65
81812;BME280;71243;51.848;5.768;2023-11-19T03:39:49;100837.84;;;12.51;91.63
81812;BME280;71243;51.848;5.768;2023-11-19T03:42:14;100833.69;;;12.49;92.05
81812;BME280;71243;51.848;5.768;2023-11-19T03:44:39;100825.03;;;12.39;92.15
81812;BME280;71243;51.848;5.768;2023-11-19T03:47:05;100827.53;;;12.40;91.98
81812;BME280;71243;51.848;5.768;2023-11-19T03:49:30;100842.44;;;12.41;91.91
81812;BME280;71243;51.848;5.768;2023-11-19T03:51:55;100836.28;;;12.33;92.18
81812;BME280;71243;51.848;5.768;2023-11-19T03:54:20;100829.63;;;12.29;91.79
81812;BME280;71243;51.848;5.768;2023-11-19T03:56:45;100835.94;;;12.28;91.96
81812;BME280;71243;51.848;5.768;2023-11-19T03:59:11;100836.41;;;12.23;91.63
81812;BME280;71243;51.848;5.768;2023-11-19T04:01:36;100836.56;;;12.22;92.19
81812;BME280;71243;51.848;5.768;2023-11-19T04:04:01;100859.72;;;12.20;91.51
81812;BME280;71243;51.848;5.768;2023-11-19T04:06:26;100850.94;;;12.19;91.31
81812;BME280;71243;51.848;5.768;2023-11-19T04:08:52;100855.09;;;12.13;91.87
81812;BME280;71243;51.848;5.768;2023-11-19T04:11:17;100837.84;;;12.09;91.90
81812;BME280;71243;51.848;5.768;2023-11-19T04:13:42;100842.47;;;12.07;91.66
81812;BME280;71243;51.848;5.768;2023-11-19T04:16:07;100851.53;;;12.05;90.86
81812;BME280;71243;51.848;5.768;2023-11-19T04:18:33;100849.72;;;12.05;90.78
81812;BME280;71243;51.848;5.768;2023-11-19T04:20:58;100855.19;;;12.04;91.40
81812;BME280;71243;51.848;5.768;2023-11-19T04:23:24;100858.97;;;12.01;90.09
81812;BME280;71243;51.848;5.768;2023-11-19T04:25:49;100853.84;;;12.00;90.66
81812;BME280;71243;51.848;5.768;2023-11-19T04:28:14;100859.13;;;12.00;90.33
81812;BME280;71243;51.848;5.768;2023-11-19T04:30:39;100869.88;;;11.98;90.17
81812;BME280;71243;51.848;5.768;2023-11-19T04:33:04;100871.16;;;11.94;90.47
81812;BME280;71243;51.848;5.768;2023-11-19T04:35:30;100871.84;;;11.96;90.26
81812;BME280;71243;51.848;5.768;2023-11-19T04:37:55;100874.81;;;11.93;90.51
81812;BME280;71243;51.848;5.768;2023-11-19T04:40:20;100877.63;;;11.92;90.44
81812;BME280;71243;51.848;5.768;2023-11-19T04:42:45;100868.84;;;11.91;90.15
81812;BME280;71243;51.848;5.768;2023-11-19T04:45:10;100864.72;;;11.89;90.34
81812;BME280;71243;51.848;5.768;2023-11-19T04:47:36;100872.13;;;11.85;90.52
81812;BME280;71243;51.848;5.768;2023-11-19T04:50:02;100866.31;;;11.82;90.48
81812;BME280;71243;51.848;5.768;2023-11-19T04:52:27;100872.06;;;11.77;90.71
81812;BME280;71243;51.848;5.768;2023-11-19T04:54:52;100877.00;;;11.72;90.52
81812;BME280;71243;51.848;5.768;2023-11-19T04:57:18;100868.06;;;11.73;90.95
81812;BME280;71243;51.848;5.768;2023-11-19T04:59:43;100866.41;;;11.72;90.87
81812;BME280;71243;51.848;5.768;2023-11-19T05:02:09;100869.38;;;11.69;90.87
81812;BME280;71243;51.848;5.768;2023-11-19T05:04:34;100874.66;;;11.69;91.16
81812;BME280;71243;51.848;5.768;2023-11-19T05:06:59;100871.34;;;11.67;91.04
81812;BME280;71243;51.848;5.768;2023-11-19T05:09:24;100869.00;;;11.64;90.99
81812;BME280;71243;51.848;5.768;2023-11-19T05:11:50;100853.94;;;11.65;90.54
81812;BME280;71243;51.848;5.768;2023-11-19T05:14:15;100876.94;;;11.64;90.29
81812;BME280;71243;51.848;5.768;2023-11-19T05:16:40;100866.88;;;11.68;90.96
81812;BME280;71243;51.848;5.768;2023-11-19T05:19:05;100865.19;;;11.67;90.56
81812;BME280;71243;51.848;5.768;2023-11-19T05:21:31;100864.25;;;11.68;89.98
81812;BME280;71243;51.848;5.768;2023-11-19T05:23:56;100871.84;;;11.71;90.09
81812;BME280;71243;51.848;5.768;2023-11-19T05:26:22;100880.94;;;11.68;90.14
81812;BME280;71243;51.848;5.768;2023-11-19T05:28:48;100870.34;;;11.68;90.16
81812;BME280;71243;51.848;5.768;2023-11-19T05:31:13;100870.34;;;11.68;89.96
81812;BME280;71243;51.848;5.768;2023-11-19T05:33:38;100871.66;;;11.64;89.77
81812;BME280;71243;51.848;5.768;2023-11-19T05:36:05;100869.81;;;11.65;89.63
81812;BME280;71243;51.848;5.768;2023-11-19T05:38:30;100874.31;;;11.64;88.88
81812;BME280;71243;51.848;5.768;2023-11-19T05:40:55;100876.06;;;11.64;89.18
81812;BME280;71243;51.848;5.768;2023-11-19T05:43:20;100890.59;;;11.60;89.56
81812;BME280;71243;51.848;5.768;2023-11-19T05:45:46;100882.50;;;11.61;89.45
81812;BME280;71243;51.848;5.768;2023-11-19T05:48:11;100890.19;;;11.64;89.39
81812;BME280;71243;51.848;5.768;2023-11-19T05:50:37;100882.81;;;11.58;88.97
81812;BME280;71243;51.848;5.768;2023-11-19T05:53:02;100896.56;;;11.62;89.02
81812;BME280;71243;51.848;5.768;2023-11-19T05:55:27;100892.72;;;11.56;89.30
81812;BME280;71243;51.848;5.768;2023-11-19T05:57:52;100889.22;;;11.56;89.48
81812;BME280;71243;51.848;5.768;2023-11-19T06:00:17;100886.91;;;11.53;89.39
81812;BME280;71243;51.848;5.768;2023-11-19T06:02:43;100877.31;;;11.52;89.49
81812;BME280;71243;51.848;5.768;2023-11-19T06:05:08;100868.53;;;11.51;89.34
81812;BME280;71243;51.848;5.768;2023-11-19T06:07:33;100873.47;;;11.46;89.53
81812;BME280;71243;51.848;5.768;2023-11-19T06:09:58;100860.22;;;11.46;89.54
81812;BME280;71243;51.848;5.768;2023-11-19T06:12:24;100876.25;;;11.45;89.96
81812;BME280;71243;51.848;5.768;2023-11-19T06:14:49;100870.13;;;11.44;89.47
81812;BME280;71243;51.848;5.768;2023-11-19T06:17:14;100869.44;;;11.42;89.66
81812;BME280;71243;51.848;5.768;2023-11-19T06:19:39;100882.06;;;11.48;89.81
81812;BME280;71243;51.848;5.768;2023-11-19T06:22:05;100881.41;;;11.46;89.82
81812;BME280;71243;51.848;5.768;2023-11-19T06:24:30;100890.31;;;11.45;90.06
81812;BME280;71243;51.848;5.768;2023-11-19T06:26:55;100893.25;;;11.42;90.08
81812;BME280;71243;51.848;5.768;2023-11-19T06:29:20;100886.97;;;11.43;90.00
81812;BME280;71243;51.848;5.768;2023-11-19T06:31:46;100885.00;;;11.45;89.98
81812;BME280;71243;51.848;5.768;2023-11-19T06:34:11;100886.00;;;11.44;89.60
81812;BME280;71243;51.848;5.768;2023-11-19T06:36:36;100888.81;;;11.43;89.68
81812;BME280;71243;51.848;5.768;2023-11-19T06:39:01;100892.25;;;11.43;89.89
81812;BME280;71243;51.848;5.768;2023-11-19T06:41:27;100893.25;;;11.42;89.68
81812;BME280;71243;51.848;5.768;2023-11-19T06:43:53;100905.13;;;11.38;90.03
81812;BME280;71243;51.848;5.768;2023-11-19T06:46:18;100894.84;;;11.35;89.94
81812;BME280;71243;51.848;5.768;2023-11-19T06:48:44;100889.56;;;11.35;90.04
81812;BME280;71243;51.848;5.768;2023-11-19T06:51:10;100890.94;;;11.39;90.03
81812;BME280;71243;51.848;5.768;2023-11-19T06:53:35;100890.09;;;11.39;90.42
81812;BME280;71243;51.848;5.768;2023-11-19T06:56:00;100885.91;;;11.36;89.90
81812;BME280;71243;51.848;5.768;2023-11-19T06:58:26;100898.03;;;11.39;89.55
81812;BME280;71243;51.848;5.768;2023-11-19T07:00:51;100911.25;;;11.39;89.73
81812;BME280;71243;51.848;5.768;2023-11-19T07:03:16;100916.53;;;11.39;89.82
81812;BME280;71243;51.848;5.768;2023-11-19T07:05:41;100914.72;;;11.39;89.73
81812;BME280;71243;51.848;5.768;2023-11-19T07:08:06;100917.53;;;11.38;89.52
81812;BME280;71243;51.848;5.768;2023-11-19T07:10:32;100921.84;;;11.39;89.85
81812;BME280;71243;51.848;5.768;2023-11-19T07:12:57;100926.59;;;11.35;89.68
81812;BME280;71243;51.848;5.768;2023-11-19T07:15:22;100928.41;;;11.35;89.93
81812;BME280;71243;51.848;5.768;2023-11-19T07:17:47;100929.41;;;11.34;89.72
81812;BME280;71243;51.848;5.768;2023-11-19T07:20:13;100943.75;;;11.31;89.79
81812;BME280;71243;51.848;5.768;2023-11-19T07:22:38;100941.09;;;11.31;89.80
81812;BME280;71243;51.848;5.768;2023-11-19T07:25:03;100939.97;;;11.34;90.07
81812;BME280;71243;51.848;5.768;2023-11-19T07:27:28;100939.97;;;11.34;89.49
81812;BME280;71243;51.848;5.768;2023-11-19T07:29:54;100945.09;;;11.35;89.22
81812;BME280;71243;51.848;5.768;2023-11-19T07:32:19;100938.81;;;11.36;89.77
81812;BME280;71243;51.848;5.768;2023-11-19T07:34:44;100937.69;;;11.39;89.44
81812;BME280;71243;51.848;5.768;2023-11-19T07:37:09;100942.00;;;11.40;89.67
81812;BME280;71243;51.848;5.768;2023-11-19T07:39:34;100948.28;;;11.39;89.54
81812;BME280;71243;51.848;5.768;2023-11-19T07:42:00;100954.09;;;11.42;89.69
81812;BME280;71243;51.848;5.768;2023-11-19T07:44:25;100950.47;;;11.43;89.96
81812;BME280;71243;51.848;5.768;2023-11-19T07:46:50;100960.25;;;11.43;89.77
81812;BME280;71243;51.848;5.768;2023-11-19T07:49:15;100956.44;;;11.45;89.92
81812;BME280;71243;51.848;5.768;2023-11-19T07:51:41;100963.25;;;11.48;89.37
81812;BME280;71243;51.848;5.768;2023-11-19T07:54:06;100966.28;;;11.53;89.71
81812;BME280;71243;51.848;5.768;2023-11-19T07:56:33;100963.47;;;11.54;89.76
81812;BME280;71243;51.848;5.768;2023-11-19T07:58:58;100968.50;;;11.57;89.22
81812;BME280;71243;51.848;5.768;2023-11-19T08:01:23;100957.06;;;11.57;89.38
81812;BME280;71243;51.848;5.768;2023-11-19T08:03:49;100950.63;;;11.59;88.95
81812;BME280;71243;51.848;5.768;2023-11-19T08:06:14;100953.44;;;11.75;88.96
81812;BME280;71243;51.848;5.768;2023-11-19T08:08:39;100943.63;;;11.85;88.05
81812;BME280;71243;51.848;5.768;2023-11-19T08:11:05;100953.25;;;11.94;87.39
81812;BME280;71243;51.848;5.768;2023-11-19T08:13:30;100952.66;;;12.00;87.16
81812;BME280;71243;51.848;5.768;2023-11-19T08:15:56;100954.16;;;12.03;86.51
81812;BME280;71243;51.848;5.768;2023-11-19T08:18:21;100955.56;;;12.15;86.49
81812;BME280;71243;51.848;5.768;2023-11-19T08:20:46;100953.09;;;12.13;86.14
81812;BME280;71243;51.848;5.768;2023-11-19T08:23:11;100955.41;;;12.17;86.27
81812;BME280;71243;51.848;5.768;2023-11-19T08:25:36;100962.00;;;12.12;85.62
81812;BME280;71243;51.848;5.768;2023-11-19T08:28:02;100963.00;;;12.11;85.85
81812;BME280;71243;51.848;5.768;2023-11-19T08:30:27;100957.53;;;12.13;85.76
81812;BME280;71243;51.848;5.768;2023-11-19T08:32:52;100955.06;;;12.11;85.80
81812;BME280;71243;51.848;5.768;2023-11-19T08:35:17;100953.59;;;12.17;86.16
81812;BME280;71243;51.848;5.768;2023-11-19T08:37:43;100956.09;;;12.19;85.27
81812;BME280;71243;51.848;5.768;2023-11-19T08:40:08;100947.34;;;12.26;85.20
81812;BME280;71243;51.848;5.768;2023-11-19T08:42:33;100952.44;;;12.20;84.72
81812;BME280;71243;51.848;5.768;2023-11-19T08:44:59;100955.94;;;12.20;85.04
81812;BME280;71243;51.848;5.768;2023-11-19T08:47:24;100958.78;;;12.27;85.73
81812;BME280;71243;51.848;5.768;2023-11-19T08:49:52;100960.75;;;12.25;85.43
81812;BME280;71243;51.848;5.768;2023-11-19T08:52:18;100950.00;;;12.26;85.22
81812;BME280;71243;51.848;5.768;2023-11-19T08:54:43;100970.00;;;12.21;85.33
81812;BME280;71243;51.848;5.768;2023-11-19T08:57:08;100962.72;;;12.23;85.14
81812;BME280;71243;51.848;5.768;2023-11-19T08:59:34;100964.72;;;12.21;85.17
81812;BME280;71243;51.848;5.768;2023-11-19T09:01:59;100974.66;;;12.27;85.65
81812;BME280;71243;51.848;5.768;2023-11-19T09:04:24;100967.03;;;12.24;85.79
81812;BME280;71243;51.848;5.768;2023-11-19T09:06:50;100974.16;;;12.23;85.35
81812;BME280;71243;51.848;5.768;2023-11-19T09:09:15;100972.50;;;12.22;85.40
81812;BME280;71243;51.848;5.768;2023-11-19T09:11:40;100962.44;;;12.26;85.45
81812;BME280;71243;51.848;5.768;2023-11-19T09:14:06;100961.59;;;12.25;85.37
81812;BME280;71243;51.848;5.768;2023-11-19T09:16:31;100968.53;;;12.26;85.63
81812;BME280;71243;51.848;5.768;2023-11-19T09:18:56;100972.69;;;12.29;85.98
81812;BME280;71243;51.848;5.768;2023-11-19T09:21:22;100969.44;;;12.35;84.87
81812;BME280;71243;51.848;5.768;2023-11-19T09:23:47;100971.09;;;12.36;85.65
81812;BME280;71243;51.848;5.768;2023-11-19T09:26:13;100977.91;;;12.38;85.67
81812;BME280;71243;51.848;5.768;2023-11-19T09:28:38;100975.53;;;12.35;85.86
81812;BME280;71243;51.848;5.768;2023-11-19T09:31:13;100980.84;;;12.35;85.40
81812;BME280;71243;51.848;5.768;2023-11-19T09:33:38;100961.94;;;12.30;85.00
81812;BME280;71243;51.848;5.768;2023-11-19T09:36:03;100968.75;;;12.33;84.93
81812;BME280;71243;51.848;5.768;2023-11-19T09:38:29;100958.00;;;12.34;85.08
81812;BME280;71243;51.848;5.768;2023-11-19T09:40:54;100979.53;;;12.31;85.31
81812;BME280;71243;51.848;5.768;2023-11-19T09:43:19;100967.59;;;12.35;84.86
81812;BME280;71243;51.848;5.768;2023-11-19T09:45:48;100967.00;;;12.41;85.54
81812;BME280;71243;51.848;5.768;2023-11-19T09:48:16;100966.81;;;12.43;85.16
81812;BME280;71243;51.848;5.768;2023-11-19T09:50:41;100964.22;;;12.51;85.13
81812;BME280;71243;51.848;5.768;2023-11-19T09:53:07;100962.75;;;12.56;84.99
81812;BME280;71243;51.848;5.768;2023-11-19T09:55:32;100958.63;;;12.62;85.02
81812;BME280;71243;51.848;5.768;2023-11-19T09:57:58;100953.50;;;12.60;84.15
81812;BME280;71243;51.848;5.768;2023-11-19T10:00:23;100959.47;;;12.62;84.26
81812;BME280;71243;51.848;5.768;2023-11-19T10:02:49;100965.47;;;12.64;84.79
81812;BME280;71243;51.848;5.768;2023-11-19T10:05:14;100972.06;;;12.68;84.27
81812;BME280;71243;51.848;5.768;2023-11-19T10:07:40;100956.38;;;12.75;83.90
81812;BME280;71243;51.848;5.768;2023-11-19T10:10:05;100960.53;;;12.77;84.14
81812;BME280;71243;51.848;5.768;2023-11-19T10:12:31;100960.22;;;12.80;83.47
81812;BME280;71243;51.848;5.768;2023-11-19T10:14:57;100946.47;;;12.85;84.03
81812;BME280;71243;51.848;5.768;2023-11-19T10:17:35;100960.56;;;12.85;83.68
81812;BME280;71243;51.848;5.768;2023-11-19T10:20:01;100950.81;;;12.86;83.92
81812;BME280;71243;51.848;5.768;2023-11-19T10:22:27;100951.97;;;12.91;82.97
81812;BME280;71243;51.848;5.768;2023-11-19T10:24:53;100942.03;;;12.93;82.66
81812;BME280;71243;51.848;5.768;2023-11-19T10:27:18;100944.69;;;12.93;82.50
81812;BME280;71243;51.848;5.768;2023-11-19T10:29:47;100934.06;;;12.93;81.54
81812;BME280;71243;51.848;5.768;2023-11-19T10:32:13;100942.69;;;12.95;82.20
81812;BME280;71243;51.848;5.768;2023-11-19T10:34:39;100943.38;;;12.97;82.23
81812;BME280;71243;51.848;5.768;2023-11-19T10:37:05;100939.88;;;12.97;82.44
81812;BME280;71243;51.848;5.768;2023-11-19T10:39:52;100942.06;;;13.01;81.53
81812;BME280;71243;51.848;5.768;2023-11-19T10:42:17;100927.38;;;13.07;81.53
81812;BME280;71243;51.848;5.768;2023-11-19T10:44:42;100944.13;;;13.15;80.21
81812;BME280;71243;51.848;5.768;2023-11-19T10:47:08;100926.56;;;13.23;80.53
81812;BME280;71243;51.848;5.768;2023-11-19T10:49:33;100921.09;;;13.32;78.68
81812;BME280;71243;51.848;5.768;2023-11-19T10:51:59;100929.75;;;13.42;79.42
81812;BME280;71243;51.848;5.768;2023-11-19T10:54:25;100920.28;;;13.48;79.13
81812;BME280;71243;51.848;5.768;2023-11-19T10:56:54;100915.16;;;13.54;78.40
81812;BME280;71243;51.848;5.768;2023-11-19T10:59:21;100910.50;;;13.64;78.29
81812;BME280;71243;51.848;5.768;2023-11-19T11:01:48;100920.13;;;13.73;78.43
81812;BME280;71243;51.848;5.768;2023-11-19T11:04:19;100915.78;;;13.88;78.20
81812;BME280;71243;51.848;5.768;2023-11-19T11:06:48;100909.66;;;13.88;77.80
81812;BME280;71243;51.848;5.768;2023-11-19T11:09:13;100917.78;;;13.78;77.18
81812;BME280;71243;51.848;5.768;2023-11-19T11:11:40;100913.31;;;13.71;76.84
81812;BME280;71243;51.848;5.768;2023-11-19T11:14:06;100911.34;;;13.65;77.85
81812;BME280;71243;51.848;5.768;2023-11-19T11:16:32;100906.19;;;13.63;78.05
81812;BME280;71243;51.848;5.768;2023-11-19T11:18:59;100904.53;;;13.54;78.01
81812;BME280;71243;51.848;5.768;2023-11-19T11:21:25;100912.50;;;13.54;78.69
81812;BME280;71243;51.848;5.768;2023-11-19T11:29:26;100906.00;;;13.57;78.92
81812;BME280;71243;51.848;5.768;2023-11-19T11:34:53;100907.16;;;13.62;78.49
81812;BME280;71243;51.848;5.768;2023-11-19T11:37:36;100902.19;;;13.67;78.31
81812;BME280;71243;51.848;5.768;2023-11-19T11:40:03;100900.19;;;13.69;78.33
81812;BME280;71243;51.848;5.768;2023-11-19T11:42:32;100886.09;;;13.69;78.14
81812;BME280;71243;51.848;5.768;2023-11-19T11:50:16;100908.50;;;13.66;78.43
81812;BME280;71243;51.848;5.768;2023-11-19T11:57:50;100887.28;;;13.66;78.69
81812;BME280;71243;51.848;5.768;2023-11-19T12:03:00;100904.34;;;13.64;79.29
81812;BME280;71243;51.848;5.768;2023-11-19T12:05:25;100906.69;;;13.59;78.93
81812;BME280;71243;51.848;5.768;2023-11-19T12:07:55;100895.06;;;13.60;78.53
81812;BME280;71243;51.848;5.768;2023-11-19T12:10:21;100891.09;;;13.56;77.13
81812;BME280;71243;51.848;5.768;2023-11-19T12:12:46;100905.34;;;13.55;76.88
81812;BME280;71243;51.848;5.768;2023-11-19T12:15:11;100890.56;;;13.60;77.10
81812;BME280;71243;51.848;5.768;2023-11-19T12:17:46;100889.91;;;13.74;77.26
81812;BME280;71243;51.848;5.768;2023-11-19T12:20:12;100877.63;;;13.81;75.88
81812;BME280;71243;51.848;5.768;2023-11-19T12:22:38;100872.97;;;13.83;75.80
81812;BME280;71243;51.848;5.768;2023-11-19T12:25:05;100878.94;;;13.85;76.29
81812;BME280;71243;51.848;5.768;2023-11-19T12:27:32;100878.78;;;13.79;75.84
81812;BME280;71243;51.848;5.768;2023-11-19T12:29:57;100875.66;;;13.75;75.32
81812;BME280;71243;51.848;5.768;2023-11-19T12:32:22;100876.81;;;13.81;75.18
81812;BME280;71243;51.848;5.768;2023-11-19T12:34:47;100870.00;;;13.78;73.97
81812;BME280;71243;51.848;5.768;2023-11-19T12:37:13;100873.31;;;13.80;74.90
81812;BME280;71243;51.848;5.768;2023-11-19T12:39:38;100868.97;;;13.87;75.05
81812;BME280;71243;51.848;5.768;2023-11-19T12:42:04;100870.63;;;13.88;75.44
81812;BME280;71243;51.848;5.768;2023-11-19T12:44:29;100880.09;;;13.91;75.99
81812;BME280;71243;51.848;5.768;2023-11-19T12:47:05;100881.25;;;13.88;75.99
81812;BME280;71243;51.848;5.768;2023-11-19T12:49:30;100876.78;;;13.89;76.82
81812;BME280;71243;51.848;5.768;2023-11-19T12:51:55;100873.81;;;13.84;76.06
81812;BME280;71243;51.848;5.768;2023-11-19T12:54:37;100878.28;;;13.91;77.16
81812;BME280;71243;51.848;5.768;2023-11-19T12:57:04;100882.75;;;13.91;77.25
81812;BME280;71243;51.848;5.768;2023-11-19T12:59:29;100884.91;;;13.95;77.39
81812;BME280;71243;51.848;5.768;2023-11-19T13:01:56;100880.75;;;13.93;77.31
81812;BME280;71243;51.848;5.768;2023-11-19T13:04:21;100872.09;;;13.99;77.17